createdAt,value
2022-10-22T00:02:12.450Z,0.00
2022-10-22T00:07:12.562Z,0.00
2022-10-22T00:12:12.657Z,0.00
2022-10-22T00:17:12.774Z,0.00
2022-10-22T00:22:13.882Z,0.00
2022-10-22T00:27:13.007Z,0.00
2022-10-22T00:32:14.105Z,0.00
2022-10-22T00:37:15.196Z,0.00
2022-10-22T00:42:16.292Z,0.00
2022-10-22T00:47:17.608Z,0.00
2022-10-22T00:52:18.693Z,0.00
2022-10-22T00:57:19.806Z,0.00
2022-10-22T01:02:20.899Z,0.00
2022-10-22T01:07:22.074Z,0.00
2022-10-22T01:12:23.177Z,0.00
2022-10-22T01:17:26.260Z,0.00
2022-10-22T01:22:26.339Z,0.00
2022-10-22T01:27:26.434Z,0.00
2022-10-22T01:32:25.546Z,0.00
2022-10-22T01:37:26.634Z,0.00
2022-10-22T01:42:28.769Z,0.00
2022-10-22T01:47:27.865Z,0.00
2022-10-22T01:52:28.960Z,0.00
2022-10-22T01:57:30.060Z,0.00
2022-10-22T02:02:32.148Z,0.00
2022-10-22T02:07:32.257Z,0.00
2022-10-22T02:12:32.353Z,0.00
2022-10-22T02:17:31.431Z,0.00
2022-10-22T02:22:33.526Z,0.00
2022-10-22T02:27:33.626Z,0.00
2022-10-22T02:32:32.708Z,0.00
2022-10-22T02:37:33.813Z,0.00
2022-10-22T02:42:34.912Z,0.00
2022-10-22T02:47:37.027Z,0.00
2022-10-22T02:52:36.173Z,0.00
2022-10-22T02:57:37.499Z,0.00
2022-10-22T03:02:36.765Z,0.00
2022-10-22T03:07:39.247Z,0.00
2022-10-22T03:12:39.056Z,0.00
2022-10-22T03:17:38.560Z,0.00
2022-10-22T03:22:38.819Z,0.00
2022-10-22T03:27:38.107Z,0.00
2022-10-22T03:32:37.692Z,0.00
2022-10-22T03:37:39.154Z,0.00
2022-10-22T03:42:38.455Z,0.00
2022-10-22T03:47:40.880Z,0.00
2022-10-22T03:52:41.128Z,0.00
2022-10-22T03:57:40.991Z,0.00
2022-10-22T04:02:40.330Z,0.00
2022-10-22T04:07:42.285Z,0.00
2022-10-22T04:12:41.661Z,0.00
2022-10-22T04:17:43.043Z,0.00
2022-10-22T04:22:42.823Z,0.00
2022-10-22T04:27:42.144Z,0.00
2022-10-22T04:32:41.627Z,0.00
2022-10-22T04:37:43.190Z,0.00
2022-10-22T04:42:42.417Z,0.00
2022-10-22T04:47:43.796Z,0.00
2022-10-22T04:52:44.019Z,0.00
2022-10-22T04:57:44.098Z,0.00
2022-10-22T05:02:44.757Z,0.00
2022-10-22T05:07:44.875Z,0.00
2022-10-22T05:12:44.971Z,0.00
2022-10-22T05:17:45.057Z,0.00
2022-10-22T05:22:45.156Z,0.00
2022-10-22T05:27:44.254Z,0.00
2022-10-22T05:32:46.361Z,4.00
2022-10-22T05:37:45.549Z,8.00
2022-10-22T05:42:46.785Z,16.00
2022-10-22T05:47:47.956Z,24.00
2022-10-22T05:52:49.043Z,36.00
2022-10-22T05:57:51.138Z,52.00
2022-10-22T06:02:49.268Z,80.00
2022-10-22T06:07:51.362Z,96.00
2022-10-22T06:12:51.459Z,116.00
2022-10-22T06:17:51.609Z,192.00
2022-10-22T06:22:50.723Z,264.00
2022-10-22T06:27:53.825Z,400.00
2022-10-22T06:32:52.934Z,460.00
2022-10-22T06:37:56.029Z,548.00
2022-10-22T06:42:55.287Z,580.00
2022-10-22T06:47:56.428Z,740.00
2022-10-22T06:52:57.540Z,904.00
2022-10-22T06:57:58.677Z,1076.00
2022-10-22T07:02:59.966Z,1224.00
2022-10-22T07:08:01.077Z,1392.00
2022-10-22T07:13:02.235Z,1584.00
2022-10-22T07:18:03.458Z,1728.00
2022-10-22T07:23:04.565Z,2232.00
2022-10-22T07:28:05.677Z,2024.00
2022-10-22T07:33:07.778Z,1844.00
2022-10-22T07:38:06.919Z,1648.00
2022-10-22T07:43:08.019Z,1720.00
2022-10-22T07:48:09.274Z,1908.00
2022-10-22T07:53:10.526Z,1880.00
2022-10-22T07:58:11.624Z,1668.00
2022-10-22T08:03:12.716Z,2020.00
2022-10-22T08:08:14.837Z,2764.00
2022-10-22T08:13:14.934Z,3136.00
2022-10-22T08:18:14.168Z,3436.00
2022-10-22T08:23:16.268Z,3660.00
2022-10-22T08:28:19.857Z,3872.00
2022-10-22T08:33:15.590Z,3336.00
2022-10-22T08:38:17.734Z,3548.00
2022-10-22T08:43:17.870Z,3744.00
2022-10-22T08:48:17.072Z,3868.00
2022-10-22T08:53:18.155Z,3504.00
2022-10-22T08:58:19.246Z,3900.00
2022-10-22T09:03:21.350Z,4096.00
2022-10-22T09:08:22.459Z,3544.00
2022-10-22T09:13:21.654Z,3776.00
2022-10-22T09:18:23.816Z,5748.00
2022-10-22T09:23:23.110Z,7440.00
2022-10-22T09:28:24.320Z,7332.00
2022-10-22T09:33:26.443Z,5020.00
2022-10-22T09:38:26.582Z,4832.00
2022-10-22T09:43:25.669Z,4912.00
2022-10-22T09:48:26.764Z,5020.00
2022-10-22T09:53:27.859Z,4124.00
2022-10-22T09:58:29.956Z,3692.00
2022-10-22T10:03:29.112Z,3420.00
2022-10-22T10:08:30.250Z,3196.00
2022-10-22T10:13:32.349Z,4300.00
2022-10-22T10:18:32.441Z,4388.00
2022-10-22T10:23:31.606Z,4076.00
2022-10-22T10:28:34.724Z,4152.00
2022-10-22T10:33:33.933Z,4536.00
2022-10-22T10:38:35.047Z,3620.00
2022-10-22T10:43:36.289Z,4880.00
2022-10-22T10:48:38.408Z,4780.00
2022-10-22T10:53:36.834Z,4928.00
2022-10-22T10:58:37.959Z,4912.00
2022-10-22T11:03:39.076Z,4888.00
2022-10-22T11:08:41.221Z,4888.00
2022-10-22T11:13:40.454Z,4876.00
2022-10-22T11:18:41.582Z,4844.00
2022-10-22T11:23:42.699Z,4844.00
2022-10-22T11:28:44.853Z,4860.00
2022-10-22T11:33:43.948Z,4856.00
2022-10-22T11:38:45.235Z,4872.00
2022-10-22T11:43:48.339Z,4888.00
2022-10-22T11:48:47.523Z,4916.00
2022-10-22T11:53:49.623Z,4932.00
2022-10-22T11:58:50.831Z,4964.00
2022-10-22T12:03:49.750Z,4992.00
2022-10-22T12:08:51.009Z,5028.00
2022-10-22T12:13:52.097Z,5064.00
2022-10-22T12:18:53.224Z,5128.00
2022-10-22T12:23:54.312Z,5120.00
2022-10-22T12:28:55.479Z,5164.00
2022-10-22T12:33:56.636Z,5180.00
2022-10-22T12:38:57.726Z,5192.00
2022-10-22T12:43:58.929Z,5264.00
2022-10-22T12:49:00.036Z,5248.00
2022-10-22T12:54:01.135Z,4280.00
2022-10-22T12:59:02.359Z,5300.00
2022-10-22T13:04:04.443Z,5076.00
2022-10-22T13:09:03.776Z,5204.00
2022-10-22T13:14:05.003Z,5200.00
2022-10-22T13:19:07.166Z,5216.00
2022-10-22T13:24:06.270Z,5212.00
2022-10-22T13:29:07.473Z,5244.00
2022-10-22T13:34:10.897Z,5272.00
2022-10-22T13:39:09.116Z,5288.00
2022-10-22T13:44:11.206Z,4112.00
2022-10-22T13:49:10.416Z,5296.00
2022-10-22T13:54:11.548Z,5160.00
2022-10-22T13:59:12.816Z,5092.00
2022-10-22T14:04:13.996Z,5020.00
2022-10-22T14:09:15.183Z,4364.00
2022-10-22T14:14:16.788Z,3264.00
2022-10-22T14:19:16.037Z,2456.00
2022-10-22T14:24:18.126Z,2364.00
2022-10-22T14:29:17.257Z,2288.00
2022-10-22T14:34:18.605Z,2220.00
2022-10-22T14:39:19.796Z,2180.00
2022-10-22T14:44:20.887Z,2140.00
2022-10-22T14:49:23.133Z,2092.00
2022-10-22T14:54:23.278Z,2052.00
2022-10-22T14:59:23.428Z,2000.00
2022-10-22T15:04:22.740Z,1952.00
2022-10-22T15:09:23.865Z,1896.00
2022-10-22T15:14:25.976Z,1836.00
2022-10-22T15:19:25.293Z,1768.00
2022-10-22T15:24:26.493Z,1692.00
2022-10-22T15:29:28.667Z,1592.00
2022-10-22T15:34:27.795Z,1472.00
2022-10-22T15:39:29.046Z,1388.00
2022-10-22T15:44:30.248Z,1296.00
2022-10-22T15:49:31.428Z,1156.00
2022-10-22T15:54:31.765Z,1000.00
2022-10-22T15:59:32.948Z,836.00
2022-10-22T16:04:34.120Z,672.00
2022-10-22T16:09:35.478Z,520.00
2022-10-22T16:14:36.591Z,372.00
2022-10-22T16:19:37.891Z,220.00
2022-10-22T16:24:39.024Z,112.00
2022-10-22T16:29:41.146Z,56.00
2022-10-22T16:34:40.212Z,24.00
2022-10-22T16:39:42.331Z,8.00
2022-10-22T16:44:41.486Z,4.00
2022-10-22T16:49:42.573Z,4.00
2022-10-22T16:54:43.704Z,0.00
2022-10-22T16:59:44.806Z,0.00
2022-10-22T17:04:46.287Z,0.00
2022-10-22T17:09:45.619Z,0.00
2022-10-22T17:14:47.780Z,0.00
2022-10-22T17:19:47.140Z,0.00
2022-10-22T17:24:48.330Z,0.00
2022-10-22T17:29:50.002Z,0.00
2022-10-22T17:34:50.505Z,0.00
2022-10-22T17:39:51.037Z,0.00
2022-10-22T17:44:50.376Z,0.00
2022-10-22T17:49:51.856Z,0.00
2022-10-22T17:54:51.265Z,0.00
2022-10-22T17:59:52.859Z,0.00
2022-10-22T18:04:52.216Z,0.00
2022-10-22T18:09:53.614Z,0.00
2022-10-22T18:14:55.041Z,0.00
2022-10-22T18:19:57.576Z,0.00
2022-10-22T18:24:56.924Z,0.00
2022-10-22T18:29:58.344Z,0.00
2022-10-22T18:34:59.769Z,0.00
2022-10-22T18:40:01.147Z,0.00
2022-10-22T18:45:02.558Z,0.00
2022-10-22T18:50:03.958Z,0.00
2022-10-22T18:55:05.146Z,0.00
2022-10-22T19:00:06.563Z,0.00
2022-10-22T19:05:05.912Z,0.00
2022-10-22T19:10:07.093Z,0.00
2022-10-22T19:15:08.310Z,0.00
2022-10-22T19:20:10.598Z,0.00
2022-10-22T19:25:11.976Z,0.00
2022-10-22T19:30:10.906Z,0.00
2022-10-22T19:35:10.956Z,0.00
2022-10-22T19:40:10.870Z,0.00
2022-10-22T19:45:10.032Z,0.00
2022-10-22T19:50:12.359Z,0.00
2022-10-22T19:55:11.570Z,0.00
2022-10-22T20:00:12.683Z,0.00
2022-10-22T20:05:14.834Z,0.00
2022-10-22T20:10:14.322Z,0.00
2022-10-22T20:15:13.892Z,0.00
2022-10-22T20:20:13.222Z,0.00
2022-10-22T20:25:14.364Z,0.00
2022-10-22T20:35:15.710Z,0.00
2022-10-22T20:40:16.901Z,0.00
2022-10-22T20:45:19.328Z,0.00
2022-10-22T20:50:18.550Z,0.00
2022-10-22T20:55:20.780Z,0.00
2022-10-22T21:00:20.918Z,0.00
2022-10-22T21:05:20.223Z,0.00
2022-10-22T21:10:22.356Z,0.00
2022-10-22T21:15:21.474Z,0.00
2022-10-22T21:20:24.825Z,0.00
2022-10-22T21:25:22.248Z,0.00
2022-10-22T21:30:23.414Z,0.00
2022-10-22T21:35:24.658Z,0.00
2022-10-22T21:40:25.899Z,0.00
2022-10-22T21:45:26.990Z,0.00
2022-10-22T21:50:28.098Z,0.00
2022-10-22T21:55:30.190Z,0.00
2022-10-22T22:00:29.321Z,0.00
2022-10-22T22:05:30.416Z,0.00
2022-10-22T22:10:31.588Z,0.00
2022-10-22T22:15:32.745Z,0.00
2022-10-22T22:20:34.103Z,0.00
2022-10-22T22:25:35.199Z,0.00
2022-10-22T22:30:37.291Z,0.00
2022-10-22T22:40:37.417Z,0.00
2022-10-22T22:45:36.506Z,0.00
2022-10-22T22:50:38.609Z,0.00
2022-10-22T22:55:38.689Z,0.00
2022-10-22T23:00:37.809Z,0.00
2022-10-22T23:05:39.029Z,0.00
2022-10-22T23:10:40.138Z,0.00
2022-10-22T23:15:41.513Z,0.00
2022-10-22T23:20:42.622Z,0.00
2022-10-22T23:25:43.711Z,0.00
2022-10-22T23:30:43.838Z,0.00
2022-10-22T23:35:45.081Z,0.00
2022-10-22T23:40:46.204Z,0.00
2022-10-22T23:45:47.330Z,0.00
2022-10-22T23:50:49.575Z,0.00
2022-10-22T23:55:49.627Z,0.00
